createdAt,value
2022-08-08T16:00:26.832Z,34.84
2022-08-08T16:01:26.804Z,35.14
2022-08-08T16:02:26.806Z,34.76
2022-08-08T16:03:26.788Z,34.8
2022-08-08T16:04:27.563Z,35.01
2022-08-08T16:05:26.752Z,35.02
2022-08-08T16:06:26.745Z,34.81
2022-08-08T16:07:26.779Z,34.8
2022-08-08T16:08:26.718Z,34.7
2022-08-08T16:09:26.713Z,34.74
2022-08-08T16:10:26.702Z,34.76
2022-08-08T16:11:26.731Z,34.34
2022-08-08T16:12:26.691Z,34.31
2022-08-08T16:13:26.682Z,34.42
2022-08-08T16:14:26.660Z,34.45
2022-08-08T16:15:26.649Z,34.53
2022-08-08T16:16:26.648Z,34.66
2022-08-08T16:17:26.661Z,34.39
2022-08-08T16:18:26.645Z,34.08
2022-08-08T16:19:26.619Z,33.97
2022-08-08T16:20:26.606Z,34.04
2022-08-08T16:21:26.653Z,33.61
2022-08-08T16:22:26.607Z,33.55
2022-08-08T16:23:26.569Z,33.6
2022-08-08T16:24:26.600Z,33.65
2022-08-08T16:25:26.543Z,33.95
2022-08-08T16:26:26.538Z,33.87
2022-08-08T16:27:26.533Z,34.05
2022-08-08T16:28:26.516Z,33.95
2022-08-08T16:29:26.531Z,34.07
2022-08-08T16:30:26.517Z,33.98
2022-08-08T16:31:26.528Z,33.63
2022-08-08T16:32:26.637Z,33.29
2022-08-08T16:33:26.468Z,33.23
2022-08-08T16:34:26.499Z,32.95
2022-08-08T16:35:26.569Z,32.98
2022-08-08T16:36:26.459Z,33.01
2022-08-08T16:37:26.430Z,33.17
2022-08-08T16:38:26.451Z,33.46
2022-08-08T16:39:26.438Z,33.52
2022-08-08T16:40:26.390Z,33.76
2022-08-08T16:41:26.390Z,33.85
2022-08-08T16:42:26.400Z,33.98
2022-08-08T16:43:26.370Z,34.07
2022-08-08T16:44:26.352Z,34.26
2022-08-08T16:45:26.342Z,34.07
2022-08-08T16:46:26.367Z,34.19
2022-08-08T16:47:26.325Z,34.22
2022-08-08T16:48:26.304Z,33.79
2022-08-08T16:49:26.302Z,33.86
2022-08-08T16:50:26.292Z,33.49
2022-08-08T16:51:26.296Z,33.6
2022-08-08T16:52:26.266Z,33.68
2022-08-08T16:53:26.284Z,33.6
2022-08-08T16:54:26.259Z,33.3
2022-08-08T16:55:26.229Z,32.98
2022-08-08T16:56:26.248Z,33.13
2022-08-08T16:57:26.212Z,33.14
2022-08-08T16:58:26.201Z,32.93
2022-08-08T16:59:26.237Z,32.79
2022-08-08T17:00:26.179Z,32.67
2022-08-08T17:01:26.183Z,32.49
2022-08-08T17:02:26.199Z,32.37
2022-08-08T17:03:26.172Z,32.14
2022-08-08T17:04:26.136Z,31.92
2022-08-08T17:05:26.153Z,31.64
2022-08-08T17:06:26.119Z,31.54
2022-08-08T17:07:26.120Z,31.62
2022-08-08T17:08:26.106Z,31.54
2022-08-08T17:09:26.094Z,31.4
2022-08-08T17:10:26.075Z,31.2
2022-08-08T17:11:26.091Z,31.18
2022-08-08T17:12:26.075Z,31.39
2022-08-08T17:13:26.044Z,31.36
2022-08-08T17:14:26.035Z,31.39
2022-08-08T17:15:26.027Z,31.3
2022-08-08T17:16:26.014Z,30.84
2022-08-08T17:17:26.032Z,30.53
2022-08-08T17:18:26.069Z,30.24
2022-08-08T17:19:25.993Z,30.07
2022-08-08T17:20:25.975Z,29.9
2022-08-08T17:21:25.969Z,29.66
2022-08-08T17:22:25.956Z,29.47
2022-08-08T17:23:25.959Z,-40
2022-08-08T17:24:25.929Z,-40
2022-08-08T17:25:25.922Z,-40
2022-08-08T17:26:25.944Z,-40
2022-08-08T17:27:25.899Z,-40
2022-08-08T17:28:25.917Z,-40
2022-08-08T17:29:25.892Z,-40
2022-08-08T17:30:25.873Z,-40
2022-08-08T17:31:25.861Z,-40
2022-08-08T17:32:25.843Z,-40
2022-08-08T17:33:25.850Z,-40
2022-08-08T17:34:25.839Z,-40
2022-08-08T17:35:25.839Z,-40
2022-08-08T17:36:25.814Z,-40
2022-08-08T17:37:25.798Z,-40
2022-08-08T17:38:25.785Z,-40
2022-08-08T17:39:25.771Z,-40
2022-08-08T17:40:25.777Z,-40
2022-08-08T17:41:25.787Z,-40
2022-08-08T17:42:25.742Z,-40
2022-08-08T17:43:25.730Z,-40
2022-08-08T17:44:25.720Z,-40
2022-08-08T17:45:25.727Z,-40
2022-08-08T17:46:25.728Z,-40
2022-08-08T17:47:25.710Z,-40
2022-08-08T17:48:25.679Z,-40
2022-08-08T17:49:25.682Z,-40
2022-08-08T17:50:25.653Z,-40
2022-08-08T17:51:25.669Z,-40
2022-08-08T17:52:25.656Z,-40
2022-08-08T17:53:25.637Z,-40
2022-08-08T17:54:25.643Z,-40
2022-08-08T17:55:25.616Z,-40
2022-08-08T17:56:25.597Z,-40
2022-08-08T17:57:25.699Z,-40
2022-08-08T17:58:25.603Z,-40
2022-08-08T17:59:25.579Z,-40
2022-08-08T18:00:25.548Z,-40
2022-08-08T18:01:25.546Z,-40
2022-08-08T18:02:25.533Z,-40
2022-08-08T18:03:25.533Z,-40
2022-08-08T18:04:25.516Z,-40
2022-08-08T18:05:25.496Z,-40
2022-08-08T18:06:25.490Z,-40
2022-08-08T18:07:25.475Z,-40
2022-08-08T18:08:25.472Z,-40
2022-08-08T18:09:25.486Z,-40
2022-08-08T18:10:25.447Z,-40
2022-08-08T18:11:25.451Z,-40
2022-08-08T18:12:25.435Z,-40
2022-08-08T18:13:25.407Z,-40
2022-08-08T18:14:25.406Z,-40
2022-08-08T18:15:25.408Z,-40
2022-08-08T18:16:25.380Z,-40
2022-08-08T18:17:25.415Z,-40
2022-08-08T18:18:25.358Z,-40
2022-08-08T18:19:25.383Z,-40
2022-08-08T18:20:25.353Z,-40
2022-08-08T18:21:25.328Z,-40
2022-08-08T18:22:25.327Z,-40
2022-08-08T18:23:25.308Z,-40
2022-08-08T18:24:25.295Z,-40
2022-08-08T18:25:25.291Z,-40
2022-08-08T18:26:25.283Z,-40
2022-08-08T18:27:25.263Z,-40
2022-08-08T18:28:25.270Z,-40
2022-08-08T18:29:25.242Z,-40
2022-08-08T18:30:25.233Z,-40
2022-08-08T18:31:25.229Z,-40
2022-08-08T18:32:25.222Z,-40
2022-08-08T18:33:25.199Z,-40
2022-08-08T18:34:25.206Z,-40
2022-08-08T18:35:25.175Z,-40
2022-08-08T18:36:25.169Z,-40
2022-08-08T18:37:25.162Z,-40
2022-08-08T18:38:25.162Z,-40
2022-08-08T18:39:25.172Z,-40
2022-08-08T18:40:25.141Z,-40
2022-08-08T18:41:25.116Z,-40
2022-08-08T18:42:25.110Z,-40
2022-08-08T18:43:25.118Z,-40
2022-08-08T18:44:25.088Z,-40
2022-08-08T18:45:25.190Z,-40
2022-08-08T18:46:25.226Z,-40
2022-08-08T18:47:25.047Z,-40
2022-08-08T18:48:25.037Z,-40
2022-08-08T18:49:25.051Z,-40
2022-08-08T18:50:25.041Z,-40
2022-08-08T18:51:25.020Z,-40
2022-08-08T18:52:25.013Z,-40
2022-08-08T18:53:24.993Z,-40
2022-08-08T18:54:25.038Z,-40
2022-08-08T18:55:24.999Z,-40
2022-08-08T18:56:24.954Z,-40
2022-08-08T18:57:24.955Z,-40
2022-08-08T18:58:24.928Z,-40
2022-08-08T18:59:24.933Z,-40
2022-08-08T19:00:24.919Z,-40
2022-08-08T19:01:24.899Z,-40
2022-08-08T19:02:24.898Z,-40
2022-08-08T19:03:24.898Z,-40
2022-08-08T19:04:24.869Z,-40
2022-08-08T19:05:24.854Z,-40
2022-08-08T19:06:24.857Z,-40
2022-08-08T19:07:24.864Z,-40
2022-08-08T19:08:24.823Z,-40
2022-08-08T19:09:24.826Z,-40
2022-08-08T19:10:24.805Z,-40
2022-08-08T19:11:24.791Z,-40
2022-08-08T19:12:24.793Z,-40
2022-08-08T19:13:24.778Z,-40
2022-08-08T19:14:24.782Z,-40
2022-08-08T19:15:24.761Z,-40
2022-08-08T19:16:24.738Z,-40
2022-08-08T19:17:24.732Z,-40
2022-08-08T19:18:24.733Z,-40
2022-08-08T19:19:24.707Z,-40
2022-08-08T19:20:24.700Z,-40
2022-08-08T19:21:24.709Z,-40
2022-08-08T19:22:24.670Z,-40
2022-08-08T19:23:24.674Z,-40
2022-08-08T19:24:24.696Z,-40
2022-08-08T19:25:24.642Z,-40
2022-08-08T19:26:24.706Z,-40
2022-08-08T19:27:24.654Z,-40
2022-08-08T19:28:24.624Z,-40
2022-08-08T19:29:24.614Z,-40
2022-08-08T19:30:24.591Z,-40
2022-08-08T19:31:24.583Z,-40
2022-08-08T19:32:24.568Z,-40
2022-08-08T19:33:24.578Z,-40
2022-08-08T19:34:24.563Z,-40
2022-08-08T19:35:24.558Z,-40
2022-08-08T19:36:24.517Z,-40
2022-08-08T19:37:24.516Z,-40
2022-08-08T19:38:24.503Z,-40
2022-08-08T19:39:24.488Z,-40
2022-08-08T19:40:24.484Z,-40
2022-08-08T19:41:24.463Z,-40
2022-08-08T19:42:24.461Z,-40
2022-08-08T19:43:24.453Z,-40
2022-08-08T19:44:24.437Z,-40
2022-08-08T19:45:24.420Z,-40
2022-08-08T19:46:24.431Z,-40
2022-08-08T19:47:24.408Z,-40
2022-08-08T19:48:24.471Z,-40
2022-08-08T19:49:24.386Z,-40
2022-08-08T19:50:24.363Z,-40
2022-08-08T19:51:24.366Z,-40
2022-08-08T19:52:24.371Z,-40
2022-08-08T19:53:24.379Z,-40
2022-08-08T19:54:24.331Z,-40
2022-08-08T19:55:31.881Z,-40
2022-08-08T19:56:24.315Z,-40
2022-08-08T19:57:24.289Z,-40
2022-08-08T19:58:24.283Z,-40
2022-08-08T19:59:24.269Z,-40
2022-08-08T20:00:24.313Z,-40
2022-08-08T20:01:24.247Z,-40
2022-08-08T20:02:24.239Z,-40
2022-08-08T20:03:24.234Z,-40
2022-08-08T20:04:24.223Z,-40
2022-08-08T20:05:24.204Z,-40
2022-08-08T20:06:24.202Z,-40
2022-08-08T20:07:24.200Z,-40
2022-08-08T20:08:24.172Z,-40
2022-08-08T20:09:24.159Z,-40
2022-08-08T20:10:24.156Z,-40
2022-08-08T20:11:24.181Z,-40
2022-08-08T20:12:24.135Z,-40
2022-08-08T20:13:24.138Z,-40
2022-08-08T20:14:24.114Z,-40
2022-08-08T20:15:24.106Z,-40
2022-08-08T20:16:24.090Z,-40
2022-08-08T20:17:24.089Z,-40
2022-08-08T20:18:24.075Z,-40
2022-08-08T20:19:24.057Z,-40
2022-08-08T20:20:24.046Z,-40
2022-08-08T20:21:24.039Z,-40
2022-08-08T20:22:24.027Z,-40
2022-08-08T20:23:24.016Z,-40
2022-08-08T20:24:24.003Z,-40
2022-08-08T20:25:24.006Z,-40
2022-08-08T20:26:23.996Z,-40
2022-08-08T20:27:23.974Z,-40
2022-08-08T20:28:23.962Z,-40
2022-08-08T20:29:23.946Z,-40
2022-08-08T20:30:23.935Z,-40
2022-08-08T20:31:23.930Z,-40
2022-08-08T20:32:23.926Z,-40
2022-08-08T20:34:23.902Z,-40
2022-08-08T20:35:23.907Z,-40
2022-08-08T20:36:23.883Z,-40
2022-08-08T20:37:23.869Z,-40
2022-08-08T20:38:23.883Z,-40
2022-08-08T20:39:23.853Z,-40
2022-08-08T20:40:23.856Z,-40
2022-08-08T20:41:23.842Z,-40
2022-08-08T20:42:23.820Z,-40
2022-08-08T20:43:23.805Z,-40
2022-08-08T20:44:23.811Z,-40
2022-08-08T20:45:23.790Z,-40
2022-08-08T20:46:23.775Z,-40
2022-08-08T20:47:23.761Z,-40
2022-08-08T20:48:23.752Z,-40
2022-08-08T20:49:23.762Z,-40
2022-08-08T20:50:23.746Z,-40
2022-08-08T20:51:23.726Z,-40
2022-08-08T20:52:23.707Z,-40
2022-08-08T20:53:23.698Z,-40
2022-08-08T20:54:23.692Z,-40
2022-08-08T20:55:23.683Z,-40
2022-08-08T20:56:23.686Z,-40
2022-08-08T20:57:23.657Z,-40
2022-08-08T20:58:23.646Z,-40
2022-08-08T20:59:23.643Z,-40
2022-08-08T21:00:23.640Z,-40
2022-08-08T21:01:23.618Z,-40
2022-08-08T21:02:23.606Z,-40
2022-08-08T21:03:23.597Z,-40
2022-08-08T21:04:23.585Z,-40
2022-08-08T21:05:23.579Z,-40
2022-08-08T21:06:23.563Z,-40
2022-08-08T21:07:23.570Z,-40
2022-08-08T21:08:23.544Z,-40
2022-08-08T21:09:23.528Z,-40
2022-08-08T21:10:23.539Z,-40
2022-08-08T21:11:23.514Z,-40
2022-08-08T21:12:23.519Z,-40
2022-08-08T21:13:23.499Z,-40
2022-08-08T21:14:23.479Z,-40
2022-08-08T21:15:23.466Z,-40
2022-08-08T21:16:23.458Z,-40
2022-08-08T21:17:23.467Z,-40
2022-08-08T21:18:23.457Z,-40
2022-08-08T21:19:23.431Z,-40
2022-08-08T21:20:23.415Z,-40
2022-08-08T21:21:23.415Z,-40
2022-08-08T21:22:23.411Z,-40
2022-08-08T21:23:23.401Z,-40
2022-08-08T21:24:23.373Z,-40
2022-08-08T21:25:23.357Z,-40
2022-08-08T21:26:23.354Z,-40
2022-08-08T21:27:23.342Z,-40
2022-08-08T21:28:23.337Z,-40
2022-08-08T21:29:23.327Z,-40
2022-08-08T21:30:23.312Z,-40
2022-08-08T21:31:23.298Z,-40
2022-08-08T21:32:23.293Z,-40
2022-08-08T21:33:23.295Z,-40
2022-08-08T21:34:23.281Z,-40
2022-08-08T21:35:23.262Z,-40
2022-08-08T21:36:23.249Z,-40
2022-08-08T21:37:23.237Z,-40
2022-08-08T21:38:23.216Z,-40
2022-08-08T21:39:23.218Z,-40
2022-08-08T21:40:23.215Z,-40
2022-08-08T21:41:23.212Z,-40
2022-08-08T21:42:23.183Z,-40
2022-08-08T21:43:23.170Z,-40
2022-08-08T21:44:23.157Z,-40
2022-08-08T21:45:23.206Z,-40
2022-08-08T21:46:23.140Z,-40
2022-08-08T21:47:23.134Z,-40
2022-08-08T21:48:23.118Z,-40
2022-08-08T21:49:23.110Z,-40
2022-08-08T21:50:23.096Z,-40
2022-08-08T21:51:23.099Z,-40
2022-08-08T21:52:23.071Z,-40
2022-08-08T21:53:23.076Z,-40
2022-08-08T21:54:23.061Z,-40
2022-08-08T21:55:23.042Z,-40
2022-08-08T21:56:23.028Z,-40
2022-08-08T21:57:23.012Z,-40
2022-08-08T21:58:23.012Z,-40
2022-08-08T21:59:22.997Z,-40
2022-08-08T22:00:22.988Z,-40
2022-08-08T22:01:22.970Z,-40
2022-08-08T22:02:22.977Z,-40
2022-08-08T22:03:22.968Z,-40
2022-08-08T22:04:22.941Z,-40
2022-08-08T22:05:22.954Z,-40
2022-08-08T22:06:22.918Z,-40
2022-08-08T22:07:22.913Z,-40
2022-08-08T22:08:22.898Z,-40
2022-08-08T22:09:22.925Z,-40
2022-08-08T22:10:22.876Z,-40
2022-08-08T22:11:22.923Z,-40
2022-08-08T22:12:22.851Z,-40
2022-08-08T22:13:22.856Z,-40
2022-08-08T22:14:22.853Z,-40
2022-08-08T22:15:22.825Z,-40
2022-08-08T22:16:22.817Z,-40
2022-08-08T22:17:22.818Z,-40
2022-08-08T22:18:22.816Z,-40
2022-08-08T22:19:22.780Z,-40
2022-08-08T22:20:22.766Z,-40
2022-08-08T22:21:22.757Z,-40
2022-08-08T22:22:22.749Z,-40
2022-08-08T22:23:22.736Z,-40
2022-08-08T22:24:22.728Z,-40
2022-08-08T22:25:22.727Z,-40
2022-08-08T22:26:22.702Z,-40
2022-08-08T22:27:22.695Z,-40
2022-08-08T22:28:22.687Z,-40
2022-08-08T22:29:22.722Z,-40
2022-08-08T22:30:22.662Z,-40
2022-08-08T22:31:22.653Z,-40
2022-08-08T22:32:22.638Z,-40
2022-08-08T22:33:22.629Z,-40
2022-08-08T22:34:22.629Z,-40
2022-08-08T22:35:22.603Z,-40
2022-08-08T22:36:22.597Z,-40
2022-08-08T22:37:22.607Z,-40
2022-08-08T22:38:22.573Z,-40
2022-08-08T22:39:22.573Z,-40
2022-08-08T22:40:22.555Z,-40
2022-08-08T22:41:22.549Z,-40
2022-08-08T22:42:22.533Z,-40
2022-08-08T22:43:22.519Z,-40
2022-08-08T22:44:22.509Z,-40
2022-08-08T22:45:22.506Z,-40
2022-08-08T22:46:22.494Z,-40
2022-08-08T22:47:22.482Z,-40
2022-08-08T22:48:22.495Z,-40
2022-08-08T22:49:22.459Z,-40
2022-08-08T22:50:22.455Z,-40
2022-08-08T22:51:22.435Z,-40
2022-08-08T22:52:22.429Z,-40
2022-08-08T22:53:22.415Z,-40
2022-08-08T22:54:22.406Z,-40
2022-08-08T22:55:22.402Z,-40
2022-08-08T22:56:22.385Z,-40
2022-08-08T22:57:22.387Z,-40
2022-08-08T22:58:22.379Z,-40
2022-08-08T22:59:22.351Z,-40
2022-08-08T23:00:22.357Z,-40
2022-08-08T23:01:22.331Z,-40
2022-08-08T23:02:22.334Z,-40
2022-08-08T23:03:22.310Z,-40
2022-08-08T23:04:22.293Z,-40
2022-08-08T23:05:22.301Z,-40
2022-08-08T23:06:22.296Z,-40
2022-08-08T23:07:22.282Z,-40
2022-08-08T23:08:22.257Z,-40
2022-08-08T23:09:22.259Z,-40
2022-08-08T23:10:22.231Z,-40
2022-08-08T23:11:22.233Z,-40
2022-08-08T23:12:22.224Z,-40
2022-08-08T23:13:22.213Z,-40
2022-08-08T23:14:22.190Z,-40
2022-08-08T23:15:22.252Z,-40
2022-08-08T23:16:22.204Z,-40
2022-08-08T23:17:22.157Z,-40
2022-08-08T23:18:22.143Z,-40
2022-08-08T23:19:22.131Z,-40
2022-08-08T23:20:22.140Z,-40
2022-08-08T23:21:22.111Z,-40
2022-08-08T23:22:22.103Z,-40
2022-08-08T23:23:22.097Z,-40
2022-08-08T23:24:22.085Z,-40
2022-08-08T23:25:22.074Z,-40
2022-08-08T23:26:22.057Z,-40
2022-08-08T23:27:22.060Z,-40
2022-08-08T23:28:22.053Z,-40
2022-08-08T23:29:22.036Z,-40
2022-08-08T23:30:22.012Z,-40
2022-08-08T23:31:22.004Z,-40
2022-08-08T23:32:21.991Z,-40
2022-08-08T23:33:21.989Z,-40
2022-08-08T23:34:21.975Z,-40
2022-08-08T23:35:21.954Z,-40
2022-08-08T23:36:21.967Z,-40
2022-08-08T23:37:21.943Z,-40
2022-08-08T23:38:21.925Z,-40
2022-08-08T23:39:21.922Z,-40
2022-08-08T23:40:21.906Z,-40
2022-08-08T23:41:21.938Z,-40
2022-08-08T23:42:21.902Z,-40
2022-08-08T23:43:21.896Z,-40
2022-08-08T23:44:21.863Z,-40
2022-08-08T23:45:21.862Z,-40
2022-08-08T23:46:21.841Z,-40
2022-08-08T23:47:21.833Z,-40
2022-08-08T23:48:21.825Z,-40
2022-08-08T23:49:21.810Z,-40
2022-08-08T23:50:21.802Z,-40
2022-08-08T23:51:21.793Z,-40
2022-08-08T23:52:21.791Z,-40
2022-08-08T23:53:21.767Z,-40
2022-08-08T23:54:21.770Z,-40
2022-08-08T23:55:21.771Z,-40
2022-08-08T23:56:21.729Z,-40
2022-08-08T23:57:21.736Z,-40
2022-08-08T23:58:21.723Z,-40
2022-08-08T23:59:21.710Z,-40
